createdAt,value
2022-10-17T00:00:20.869Z,14.87
2022-10-17T00:01:21.087Z,14.86
2022-10-17T00:02:20.882Z,14.81
2022-10-17T00:03:23.936Z,14.73
2022-10-17T00:04:20.928Z,14.87
2022-10-17T00:05:20.905Z,14.79
2022-10-17T00:06:20.871Z,14.79
2022-10-17T00:07:20.869Z,14.7
2022-10-17T00:08:24.030Z,14.67
2022-10-17T00:09:20.876Z,14.61
2022-10-17T00:10:20.900Z,14.63
2022-10-17T00:11:20.898Z,14.66
2022-10-17T00:12:20.876Z,14.71
2022-10-17T00:13:20.923Z,14.59
2022-10-17T00:14:24.023Z,14.59
2022-10-17T00:15:20.921Z,14.63
2022-10-17T00:16:20.877Z,14.58
2022-10-17T00:17:20.929Z,14.68
2022-10-17T00:18:20.935Z,14.66
2022-10-17T00:19:23.706Z,14.67
2022-10-17T00:20:20.925Z,14.66
2022-10-17T00:21:20.885Z,14.66
2022-10-17T00:22:20.892Z,14.4
2022-10-17T00:23:20.920Z,14.61
2022-10-17T00:24:20.965Z,14.68
2022-10-17T00:25:20.928Z,14.58
2022-10-17T00:26:20.897Z,14.63
2022-10-17T00:27:20.922Z,14.49
2022-10-17T00:28:20.938Z,14.58
2022-10-17T00:29:20.903Z,14.63
2022-10-17T00:30:23.726Z,14.55
2022-10-17T00:31:20.912Z,14.67
2022-10-17T00:32:21.970Z,14.51
2022-10-17T00:33:20.932Z,14.67
2022-10-17T00:34:20.944Z,14.59
2022-10-17T00:35:20.950Z,14.59
2022-10-17T00:36:20.904Z,14.53
2022-10-17T00:37:20.909Z,14.48
2022-10-17T00:38:20.914Z,14.52
2022-10-17T00:39:20.750Z,14.55
2022-10-17T00:40:20.962Z,14.58
2022-10-17T00:41:23.959Z,14.51
2022-10-17T00:42:20.920Z,14.53
2022-10-17T00:43:20.948Z,14.41
2022-10-17T00:44:20.915Z,14.41
2022-10-17T00:45:21.096Z,14.43
2022-10-17T00:46:20.945Z,14.43
2022-10-17T00:47:20.925Z,14.37
2022-10-17T00:48:25.685Z,14.44
2022-10-17T00:49:20.967Z,14.36
2022-10-17T00:50:20.967Z,14.37
2022-10-17T00:51:20.929Z,14.38
2022-10-17T00:52:22.146Z,14.38
2022-10-17T00:53:20.965Z,14.4
2022-10-17T00:54:20.932Z,14.41
2022-10-17T00:55:20.968Z,14.38
2022-10-17T00:56:20.959Z,14.33
2022-10-17T00:57:20.937Z,14.36
2022-10-17T00:58:20.950Z,14.3
2022-10-17T00:59:20.974Z,14.28
2022-10-17T01:00:20.960Z,14.34
2022-10-17T01:01:21.143Z,14.34
2022-10-17T01:02:20.955Z,14.4
2022-10-17T01:03:23.757Z,14.36
2022-10-17T01:04:20.967Z,14.36
2022-10-17T01:05:21.006Z,14.26
2022-10-17T01:06:20.983Z,14.36
2022-10-17T01:07:20.962Z,14.43
2022-10-17T01:08:20.969Z,14.38
2022-10-17T01:09:20.958Z,14.41
2022-10-17T01:11:20.993Z,14.3
2022-10-17T01:12:20.976Z,14.31
2022-10-17T01:13:20.984Z,14.36
2022-10-17T01:14:24.009Z,14.31
2022-10-17T01:15:20.991Z,14.41
2022-10-17T01:16:20.973Z,14.4
2022-10-17T01:17:20.972Z,14.36
2022-10-17T01:18:20.982Z,14.33
2022-10-17T01:19:21.192Z,14.23
2022-10-17T01:20:21.009Z,14.3
2022-10-17T01:21:20.999Z,14.37
2022-10-17T01:22:21.006Z,14.22
2022-10-17T01:23:21.062Z,14.2
2022-10-17T01:24:21.008Z,14.36
2022-10-17T01:25:23.768Z,14.3
2022-10-17T01:26:20.989Z,14.28
2022-10-17T01:27:23.779Z,14.26
2022-10-17T01:28:21.050Z,14.18
2022-10-17T01:29:21.023Z,14.19
2022-10-17T01:30:21.040Z,14.28
2022-10-17T01:31:22.022Z,14.23
2022-10-17T01:32:21.015Z,14.37
2022-10-17T01:33:21.025Z,14.3
2022-10-17T01:34:21.234Z,14.19
2022-10-17T01:35:21.028Z,14.19
2022-10-17T01:36:21.007Z,14.16
2022-10-17T01:37:21.103Z,14.11
2022-10-17T01:38:21.045Z,14.05
2022-10-17T01:39:21.039Z,14.18
2022-10-17T01:40:21.042Z,14.13
2022-10-17T01:41:21.017Z,14.05
2022-10-17T01:42:21.019Z,14.12
2022-10-17T01:43:21.021Z,14.18
2022-10-17T01:44:21.023Z,14.05
2022-10-17T01:45:21.061Z,14.12
2022-10-17T01:46:21.085Z,14.11
2022-10-17T01:47:21.105Z,14.13
2022-10-17T01:48:21.024Z,14.13
2022-10-17T01:49:21.055Z,14.2
2022-10-17T01:50:21.047Z,14.16
2022-10-17T01:51:21.054Z,14.13
2022-10-17T01:52:21.034Z,14.19
2022-10-17T01:53:21.082Z,14.12
2022-10-17T01:54:21.070Z,14.2
2022-10-17T01:55:21.078Z,14.13
2022-10-17T01:56:21.202Z,14.13
2022-10-17T01:57:24.067Z,14.07
2022-10-17T01:58:21.047Z,14.07
2022-10-17T01:59:25.579Z,14.08
2022-10-17T02:00:21.099Z,14.2
2022-10-17T02:01:21.310Z,14.22
2022-10-17T02:02:21.078Z,14.23
2022-10-17T02:03:21.067Z,14.13
2022-10-17T02:04:21.064Z,14.16
2022-10-17T02:05:21.085Z,14.13
2022-10-17T02:06:21.066Z,14.15
2022-10-17T02:07:21.256Z,14.04
2022-10-17T02:08:22.183Z,14.07
2022-10-17T02:09:21.121Z,14.07
2022-10-17T02:10:21.111Z,14.11
2022-10-17T02:11:21.290Z,14.08
2022-10-17T02:12:21.114Z,14.13
2022-10-17T02:13:23.980Z,14.12
2022-10-17T02:14:21.101Z,14.16
2022-10-17T02:15:21.110Z,14.15
2022-10-17T02:16:21.081Z,14.12
2022-10-17T02:17:23.832Z,14.2
2022-10-17T02:18:21.108Z,14.07
2022-10-17T02:19:25.955Z,14.22
2022-10-17T02:20:21.115Z,14.08
2022-10-17T02:21:21.093Z,14.13
2022-10-17T02:22:21.097Z,14.08
2022-10-17T02:23:21.126Z,14.07
2022-10-17T02:24:24.234Z,13.97
2022-10-17T02:25:21.111Z,14.04
2022-10-17T02:26:21.116Z,14.05
2022-10-17T02:27:21.091Z,14.04
2022-10-17T02:28:21.163Z,14.01
2022-10-17T02:29:21.104Z,13.95
2022-10-17T02:30:24.153Z,13.98
2022-10-17T02:31:21.104Z,13.98
2022-10-17T02:33:21.113Z,13.94
2022-10-17T02:34:21.135Z,13.87
2022-10-17T02:35:22.726Z,13.89
2022-10-17T02:36:21.109Z,13.8
2022-10-17T02:37:21.125Z,13.76
2022-10-17T02:38:21.120Z,13.82
2022-10-17T02:39:24.161Z,13.79
2022-10-17T02:40:21.151Z,14.03
2022-10-17T02:41:24.545Z,13.82
2022-10-17T02:42:21.120Z,13.75
2022-10-17T02:43:21.143Z,13.76
2022-10-17T02:44:21.129Z,13.75
2022-10-17T02:45:21.353Z,13.68
2022-10-17T02:46:24.136Z,13.7
2022-10-17T02:47:21.122Z,13.64
2022-10-17T02:48:21.140Z,13.65
2022-10-17T02:49:21.138Z,13.67
2022-10-17T02:50:21.383Z,13.64
2022-10-17T02:51:21.140Z,13.57
2022-10-17T02:52:21.151Z,13.55
2022-10-17T02:53:21.161Z,13.55
2022-10-17T02:54:21.148Z,13.55
2022-10-17T02:55:21.164Z,13.58
2022-10-17T02:56:21.193Z,13.57
2022-10-17T02:57:23.991Z,13.61
2022-10-17T02:58:21.197Z,13.62
2022-10-17T02:59:21.213Z,13.62
2022-10-17T03:00:21.195Z,13.58
2022-10-17T03:01:21.421Z,13.49
2022-10-17T03:02:21.162Z,13.57
2022-10-17T03:03:21.166Z,13.58
2022-10-17T03:04:21.197Z,13.55
2022-10-17T03:05:21.204Z,13.6
2022-10-17T03:06:21.210Z,13.64
2022-10-17T03:07:24.212Z,13.55
2022-10-17T03:08:24.254Z,13.6
2022-10-17T03:09:21.168Z,13.55
2022-10-17T03:10:21.210Z,13.52
2022-10-17T03:11:21.172Z,13.5
2022-10-17T03:12:21.232Z,13.39
2022-10-17T03:13:21.203Z,13.46
2022-10-17T03:14:21.173Z,13.45
2022-10-17T03:15:21.191Z,13.43
2022-10-17T03:16:21.222Z,13.33
2022-10-17T03:17:21.184Z,13.33
2022-10-17T03:18:21.188Z,13.33
2022-10-17T03:19:24.190Z,13.36
2022-10-17T03:20:21.201Z,13.42
2022-10-17T03:21:21.194Z,13.39
2022-10-17T03:22:21.247Z,13.33
2022-10-17T03:23:21.298Z,13.39
2022-10-17T03:24:21.204Z,13.36
2022-10-17T03:25:21.255Z,13.45
2022-10-17T03:26:21.188Z,13.43
2022-10-17T03:27:21.204Z,13.47
2022-10-17T03:28:21.285Z,13.43
2022-10-17T03:29:21.225Z,13.43
2022-10-17T03:30:27.600Z,13.47
2022-10-17T03:31:21.205Z,13.52
2022-10-17T03:32:21.228Z,13.43
2022-10-17T03:33:21.209Z,13.58
2022-10-17T03:34:21.244Z,13.47
2022-10-17T03:35:21.209Z,13.46
2022-10-17T03:36:21.264Z,13.5
2022-10-17T03:37:21.216Z,13.45
2022-10-17T03:38:21.268Z,13.43
2022-10-17T03:39:21.204Z,13.5
2022-10-17T03:40:21.247Z,13.37
2022-10-17T03:41:24.095Z,13.36
2022-10-17T03:42:21.226Z,13.37
2022-10-17T03:43:21.260Z,13.24
2022-10-17T03:44:21.242Z,13.3
2022-10-17T03:45:21.274Z,13.23
2022-10-17T03:46:21.546Z,13.19
2022-10-17T03:47:21.403Z,13.23
2022-10-17T03:48:21.233Z,13.16
2022-10-17T03:49:21.241Z,13.21
2022-10-17T03:50:21.248Z,13.21
2022-10-17T03:51:21.236Z,13.24
2022-10-17T03:52:24.111Z,13.33
2022-10-17T03:53:21.238Z,13.31
2022-10-17T03:54:21.261Z,13.3
2022-10-17T03:55:21.318Z,13.27
2022-10-17T03:56:21.249Z,13.16
2022-10-17T03:57:21.278Z,13.2
2022-10-17T03:58:21.251Z,13.21
2022-10-17T03:59:21.251Z,13.19
2022-10-17T04:00:21.284Z,13.17
2022-10-17T04:01:21.637Z,13.17
2022-10-17T04:02:21.253Z,13.21
2022-10-17T04:03:21.974Z,13.26
2022-10-17T04:04:21.267Z,13.19
2022-10-17T04:05:21.273Z,13.13
2022-10-17T04:06:21.257Z,13.11
2022-10-17T04:07:21.475Z,13.11
2022-10-17T04:08:22.355Z,13.21
2022-10-17T04:09:21.266Z,13.06
2022-10-17T04:10:24.277Z,13.06
2022-10-17T04:11:21.098Z,13.06
2022-10-17T04:12:21.286Z,13.05
2022-10-17T04:13:21.283Z,12.99
2022-10-17T04:14:21.274Z,13.01
2022-10-17T04:15:21.276Z,12.95
2022-10-17T04:16:22.425Z,12.95
2022-10-17T04:17:21.297Z,13.02
2022-10-17T04:18:24.388Z,13.02
2022-10-17T04:19:21.286Z,13.08
2022-10-17T04:20:21.278Z,13.01
2022-10-17T04:21:21.305Z,12.98
2022-10-17T04:22:21.284Z,12.95
2022-10-17T04:23:21.311Z,12.98
2022-10-17T04:24:24.113Z,12.98
2022-10-17T04:25:21.291Z,12.9
2022-10-17T04:26:21.398Z,12.99
2022-10-17T04:27:21.299Z,12.91
2022-10-17T04:28:21.732Z,12.93
2022-10-17T04:29:21.301Z,12.87
2022-10-17T04:30:21.298Z,12.91
2022-10-17T04:31:21.332Z,12.94
2022-10-17T04:32:21.329Z,12.94
2022-10-17T04:33:21.344Z,12.78
2022-10-17T04:34:21.444Z,12.88
2022-10-17T04:35:24.327Z,12.93
2022-10-17T04:36:21.342Z,12.99
2022-10-17T04:37:21.302Z,12.88
2022-10-17T04:38:24.923Z,12.95
2022-10-17T04:39:21.331Z,12.88
2022-10-17T04:40:21.353Z,12.91
2022-10-17T04:41:21.334Z,12.93
2022-10-17T04:42:21.344Z,12.98
2022-10-17T04:43:24.429Z,13.03
2022-10-17T04:44:21.328Z,12.99
2022-10-17T04:45:21.163Z,13.02
2022-10-17T04:46:30.153Z,12.99
2022-10-17T04:47:21.328Z,13.06
2022-10-17T04:48:21.352Z,12.99
2022-10-17T04:49:21.589Z,12.94
2022-10-17T04:50:21.339Z,12.91
2022-10-17T04:51:28.949Z,12.94
2022-10-17T04:52:21.335Z,12.98
2022-10-17T04:53:21.338Z,12.93
2022-10-17T04:54:21.355Z,12.94
2022-10-17T04:55:21.339Z,12.87
2022-10-17T04:56:21.362Z,12.93
2022-10-17T04:57:24.180Z,12.9
2022-10-17T04:58:24.162Z,12.9
2022-10-17T04:59:21.359Z,12.88
2022-10-17T05:00:21.372Z,12.84
2022-10-17T05:01:21.793Z,12.86
2022-10-17T05:02:22.557Z,12.87
2022-10-17T05:03:21.361Z,12.86
2022-10-17T05:04:27.297Z,12.81
2022-10-17T05:05:21.367Z,12.81
2022-10-17T05:06:21.545Z,12.84
2022-10-17T05:07:21.358Z,12.86
2022-10-17T05:08:21.370Z,12.8
2022-10-17T05:09:21.362Z,12.87
2022-10-17T05:10:21.364Z,12.8
2022-10-17T05:11:21.381Z,12.78
2022-10-17T05:12:21.377Z,12.83
2022-10-17T05:13:24.520Z,12.78
2022-10-17T05:14:21.390Z,12.84
2022-10-17T05:15:24.172Z,12.86
2022-10-17T05:16:21.609Z,12.81
2022-10-17T05:17:21.384Z,12.84
2022-10-17T05:18:21.378Z,12.87
2022-10-17T05:19:21.380Z,12.78
2022-10-17T05:20:21.499Z,12.78
2022-10-17T05:21:21.604Z,12.8
2022-10-17T05:22:21.389Z,12.76
2022-10-17T05:23:21.390Z,12.72
2022-10-17T05:24:24.180Z,12.81
2022-10-17T05:25:21.419Z,12.78
2022-10-17T05:26:21.418Z,12.72
2022-10-17T05:27:21.387Z,12.83
2022-10-17T05:28:21.514Z,12.76
2022-10-17T05:29:21.412Z,12.78
2022-10-17T05:30:21.304Z,12.76
2022-10-17T05:31:21.436Z,12.88
2022-10-17T05:32:21.406Z,12.83
2022-10-17T05:33:21.397Z,12.75
2022-10-17T05:34:21.418Z,12.86
2022-10-17T05:35:24.497Z,12.88
2022-10-17T05:36:21.442Z,12.88
2022-10-17T05:37:21.411Z,12.86
2022-10-17T05:38:21.422Z,12.93
2022-10-17T05:39:21.405Z,12.78
2022-10-17T05:40:21.446Z,12.88
2022-10-17T05:41:21.430Z,12.86
2022-10-17T05:42:21.619Z,12.87
2022-10-17T05:43:23.027Z,12.86
2022-10-17T05:44:21.423Z,12.9
2022-10-17T05:45:21.433Z,12.9
2022-10-17T05:46:22.600Z,12.94
2022-10-17T05:47:21.431Z,12.88
2022-10-17T05:48:21.425Z,12.81
2022-10-17T05:49:52.172Z,12.88
2022-10-17T05:50:21.439Z,12.86
2022-10-17T05:51:21.487Z,12.83
2022-10-17T05:52:21.663Z,12.75
2022-10-17T05:53:21.668Z,12.81
2022-10-17T05:54:21.446Z,12.8
2022-10-17T05:55:21.455Z,12.73
2022-10-17T05:56:21.469Z,12.81
2022-10-17T05:57:24.486Z,12.76
2022-10-17T05:58:53.337Z,12.73
2022-10-17T05:59:21.452Z,12.72
2022-10-17T06:00:21.452Z,12.78
2022-10-17T06:01:21.498Z,12.86
2022-10-17T06:02:21.980Z,12.7
2022-10-17T06:03:21.599Z,12.76
2022-10-17T06:04:21.466Z,12.72
2022-10-17T06:05:22.530Z,12.78
2022-10-17T06:06:21.687Z,12.73
2022-10-17T06:07:21.531Z,12.81
2022-10-17T06:08:24.503Z,12.76
2022-10-17T06:09:21.461Z,12.8
2022-10-17T06:10:21.492Z,12.8
2022-10-17T06:11:21.474Z,12.73
2022-10-17T06:12:21.482Z,12.78
2022-10-17T06:13:21.515Z,12.8
2022-10-17T06:14:21.486Z,12.81
2022-10-17T06:15:22.525Z,12.87
2022-10-17T06:16:21.481Z,12.91
2022-10-17T06:17:21.674Z,12.9
2022-10-17T06:18:21.522Z,12.91
2022-10-17T06:19:24.573Z,12.86
2022-10-17T06:20:21.481Z,12.99
2022-10-17T06:21:21.479Z,13.01
2022-10-17T06:22:21.503Z,12.99
2022-10-17T06:23:21.536Z,13.01
2022-10-17T06:24:21.510Z,13.06
2022-10-17T06:25:21.498Z,13.16
2022-10-17T06:26:21.512Z,13.12
2022-10-17T06:27:21.492Z,13.12
2022-10-17T06:28:21.535Z,13.2
2022-10-17T06:29:24.280Z,13.21
2022-10-17T06:30:21.533Z,13.26
2022-10-17T06:31:21.569Z,13.36
2022-10-17T06:32:21.502Z,13.46
2022-10-17T06:33:21.560Z,13.46
2022-10-17T06:34:21.537Z,13.45
2022-10-17T06:35:21.518Z,13.57
2022-10-17T06:36:21.520Z,13.54
2022-10-17T06:37:21.519Z,13.54
2022-10-17T06:38:21.515Z,13.68
2022-10-17T06:39:21.561Z,13.7
2022-10-17T06:40:21.519Z,13.62
2022-10-17T06:41:21.558Z,13.79
2022-10-17T06:42:21.523Z,13.73
2022-10-17T06:43:25.472Z,13.82
2022-10-17T06:44:21.526Z,13.78
2022-10-17T06:45:21.524Z,13.82
2022-10-17T06:46:21.541Z,13.98
2022-10-17T06:47:24.650Z,14.07
2022-10-17T06:48:21.542Z,14.12
2022-10-17T06:49:21.551Z,14.2
2022-10-17T06:50:21.570Z,14.25
2022-10-17T06:51:24.645Z,14.18
2022-10-17T06:52:21.589Z,14.38
2022-10-17T06:53:21.557Z,14.37
2022-10-17T06:54:21.546Z,14.49
2022-10-17T06:55:27.233Z,14.62
2022-10-17T06:56:21.547Z,14.78
2022-10-17T06:57:21.579Z,15
2022-10-17T06:58:21.546Z,15.05
2022-10-17T06:59:21.547Z,15.18
2022-10-17T07:00:21.551Z,15.3
2022-10-17T07:01:21.565Z,15.41
2022-10-17T07:02:24.605Z,15.55
2022-10-17T07:03:21.563Z,15.75
2022-10-17T07:04:21.552Z,15.98
2022-10-17T07:05:21.575Z,16.05
2022-10-17T07:06:21.745Z,16.34
2022-10-17T07:07:21.582Z,16.46
2022-10-17T07:08:21.575Z,16.68
2022-10-17T07:09:21.567Z,16.83
2022-10-17T07:10:21.577Z,17.04
2022-10-17T07:11:21.621Z,17.07
2022-10-17T07:12:21.601Z,17.38
2022-10-17T07:13:24.624Z,17.46
2022-10-17T07:14:21.579Z,17.65
2022-10-17T07:15:21.595Z,17.76
2022-10-17T07:16:21.577Z,17.95
2022-10-17T07:17:21.599Z,17.94
2022-10-17T07:18:24.484Z,18.15
2022-10-17T07:19:21.598Z,18.28
2022-10-17T07:20:21.601Z,18.61
2022-10-17T07:21:21.591Z,18.66
2022-10-17T07:22:21.672Z,18.85
2022-10-17T07:23:21.589Z,18.94
2022-10-17T07:24:24.374Z,19.22
2022-10-17T07:25:21.592Z,19.3
2022-10-17T07:26:21.605Z,19.38
2022-10-17T07:27:27.792Z,19.57
2022-10-17T07:28:21.643Z,19.67
2022-10-17T07:29:24.669Z,19.85
2022-10-17T07:30:21.596Z,19.87
2022-10-17T07:31:21.616Z,19.96
2022-10-17T07:32:21.640Z,19.96
2022-10-17T07:33:21.659Z,20.02
2022-10-17T07:34:21.622Z,20.14
2022-10-17T07:35:24.558Z,20.22
2022-10-17T07:36:21.625Z,20.15
2022-10-17T07:37:21.639Z,20.37
2022-10-17T07:38:21.653Z,20.49
2022-10-17T07:39:21.628Z,20.5
2022-10-17T07:40:24.383Z,20.68
2022-10-17T07:41:25.538Z,20.75
2022-10-17T07:42:21.647Z,20.7
2022-10-17T07:43:21.684Z,20.78
2022-10-17T07:44:21.644Z,20.89
2022-10-17T07:45:21.636Z,20.9
2022-10-17T07:46:24.721Z,20.93
2022-10-17T07:47:21.650Z,21.01
2022-10-17T07:48:21.641Z,21.1
2022-10-17T07:49:22.724Z,21.19
2022-10-17T07:50:21.633Z,21.2
2022-10-17T07:51:27.516Z,21.35
2022-10-17T07:52:21.665Z,21.45
2022-10-17T07:53:21.922Z,21.4
2022-10-17T07:54:21.673Z,21.48
2022-10-17T07:55:21.730Z,21.63
2022-10-17T07:56:21.651Z,21.66
2022-10-17T07:57:21.656Z,21.84
2022-10-17T07:58:21.655Z,21.83
2022-10-17T07:59:21.715Z,21.99
2022-10-17T08:00:21.718Z,22.01
2022-10-17T08:01:21.655Z,22.01
2022-10-17T08:02:21.934Z,22.18
2022-10-17T08:03:21.670Z,22.26
2022-10-17T08:04:21.665Z,22.41
2022-10-17T08:05:21.681Z,22.49
2022-10-17T08:06:21.677Z,22.44
2022-10-17T08:07:31.733Z,22.51
2022-10-17T08:08:21.667Z,22.7
2022-10-17T08:09:21.673Z,22.74
2022-10-17T08:10:21.726Z,22.88
2022-10-17T08:11:21.695Z,22.95
2022-10-17T08:12:21.693Z,23.01
2022-10-17T08:13:24.687Z,22.98
2022-10-17T08:14:21.689Z,23.07
2022-10-17T08:15:21.729Z,23.14
2022-10-17T08:16:21.701Z,23.06
2022-10-17T08:17:21.766Z,23.2
2022-10-17T08:18:21.692Z,23.33
2022-10-17T08:19:21.714Z,23.39
2022-10-17T08:20:21.695Z,23.42
2022-10-17T08:21:21.698Z,23.56
2022-10-17T08:22:21.714Z,23.56
2022-10-17T08:23:21.692Z,23.67
2022-10-17T08:24:24.799Z,23.67
2022-10-17T08:25:21.699Z,23.77
2022-10-17T08:26:21.881Z,23.71
2022-10-17T08:27:21.722Z,23.86
2022-10-17T08:28:21.766Z,23.94
2022-10-17T08:29:21.729Z,23.94
2022-10-17T08:30:21.728Z,24.09
2022-10-17T08:31:21.766Z,24.13
2022-10-17T08:32:21.738Z,24.28
2022-10-17T08:33:21.737Z,24.16
2022-10-17T08:34:21.741Z,24.32
2022-10-17T08:35:24.850Z,24.26
2022-10-17T08:36:21.737Z,24.41
2022-10-17T08:37:21.757Z,24.44
2022-10-17T08:38:32.093Z,24.26
2022-10-17T08:39:21.838Z,24.34
2022-10-17T08:40:21.744Z,24.37
2022-10-17T08:41:21.724Z,24.55
2022-10-17T08:42:21.858Z,24.38
2022-10-17T08:43:21.741Z,24.58
2022-10-17T08:44:21.871Z,24.68
2022-10-17T08:45:21.752Z,24.94
2022-10-17T08:46:24.930Z,24.92
2022-10-17T08:47:21.631Z,24.89
2022-10-17T08:48:21.925Z,25.11
2022-10-17T08:49:21.758Z,25.11
2022-10-17T08:50:21.746Z,25.09
2022-10-17T08:51:21.743Z,25.22
2022-10-17T08:52:21.769Z,25.14
2022-10-17T08:53:21.789Z,25.3
2022-10-17T08:54:21.792Z,25.36
2022-10-17T08:55:21.772Z,25.06
2022-10-17T08:56:49.115Z,25.26
2022-10-17T08:57:21.776Z,25.3
2022-10-17T08:58:21.798Z,25.4
2022-10-17T08:59:21.780Z,25.44
2022-10-17T09:00:21.787Z,25.43
2022-10-17T09:01:21.799Z,25.44
2022-10-17T09:02:21.818Z,25.52
2022-10-17T09:03:22.162Z,25.73
2022-10-17T09:04:22.112Z,25.76
2022-10-17T09:05:27.844Z,25.67
2022-10-17T09:06:21.786Z,25.74
2022-10-17T09:07:21.864Z,25.73
2022-10-17T09:08:21.792Z,25.66
2022-10-17T09:09:21.947Z,25.68
2022-10-17T09:10:21.795Z,25.76
2022-10-17T09:11:21.654Z,25.8
2022-10-17T09:12:21.847Z,25.68
2022-10-17T09:13:21.798Z,25.78
2022-10-17T09:14:21.821Z,25.96
2022-10-17T09:15:21.918Z,25.96
2022-10-17T09:16:21.797Z,26.01
2022-10-17T09:17:21.814Z,26.18
2022-10-17T09:18:26.453Z,26.22
2022-10-17T09:19:21.671Z,26.31
2022-10-17T09:20:21.896Z,26.3
2022-10-17T09:21:24.708Z,26.24
2022-10-17T09:22:21.832Z,26.44
2022-10-17T09:23:21.819Z,26.52
2022-10-17T09:24:21.819Z,26.59
2022-10-17T09:25:21.830Z,26.78
2022-10-17T09:26:21.823Z,26.79
2022-10-17T09:27:21.840Z,26.78
2022-10-17T09:28:21.899Z,26.82
2022-10-17T09:29:24.881Z,26.83
2022-10-17T09:30:48.907Z,27.03
2022-10-17T09:31:21.836Z,27.2
2022-10-17T09:32:21.845Z,27.23
2022-10-17T09:33:55.710Z,27.15
2022-10-17T09:34:26.658Z,27.26
2022-10-17T09:35:21.890Z,27.29
2022-10-17T09:36:21.835Z,27.28
2022-10-17T09:37:21.705Z,27.26
2022-10-17T09:38:21.841Z,27.5
2022-10-17T09:39:23.010Z,27.52
2022-10-17T09:40:23.031Z,27.61
2022-10-17T09:41:49.775Z,27.53
2022-10-17T09:42:21.858Z,27.61
2022-10-17T09:43:21.870Z,27.67
2022-10-17T09:44:21.971Z,27.66
2022-10-17T09:45:24.911Z,27.66
2022-10-17T09:46:21.861Z,27.67
2022-10-17T09:47:21.905Z,27.48
2022-10-17T09:48:21.874Z,27.68
2022-10-17T09:49:22.118Z,27.6
2022-10-17T09:50:21.866Z,27.45
2022-10-17T09:51:30.534Z,27.63
2022-10-17T09:52:21.886Z,27.66
2022-10-17T09:53:21.870Z,27.45
2022-10-17T09:54:21.869Z,27.45
2022-10-17T09:55:21.872Z,27.47
2022-10-17T09:56:24.989Z,27.66
2022-10-17T09:57:21.893Z,27.71
2022-10-17T09:58:21.874Z,27.71
2022-10-17T09:59:21.875Z,27.78
2022-10-17T10:00:21.888Z,27.63
2022-10-17T10:01:27.626Z,27.61
2022-10-17T10:02:24.841Z,27.63
2022-10-17T10:03:21.893Z,27.63
2022-10-17T10:04:21.891Z,27.44
2022-10-17T10:05:21.911Z,27.68
2022-10-17T10:06:21.890Z,27.72
2022-10-17T10:07:31.271Z,27.66
2022-10-17T10:08:21.901Z,27.67
2022-10-17T10:10:21.890Z,27.78
2022-10-17T10:11:21.898Z,27.75
2022-10-17T10:12:21.926Z,27.85
2022-10-17T10:13:24.909Z,27.83
2022-10-17T10:14:21.913Z,27.86
2022-10-17T10:15:21.915Z,27.85
2022-10-17T10:16:21.918Z,27.91
2022-10-17T10:17:22.010Z,27.9
2022-10-17T10:18:25.394Z,27.9
2022-10-17T10:19:21.929Z,28
2022-10-17T10:20:21.922Z,27.9
2022-10-17T10:21:21.950Z,27.76
2022-10-17T10:22:22.043Z,27.44
2022-10-17T10:23:21.995Z,27.45
2022-10-17T10:24:21.928Z,27.48
2022-10-17T10:25:21.924Z,27.52
2022-10-17T10:26:25.499Z,27.4
2022-10-17T10:27:22.108Z,27.58
2022-10-17T10:28:22.043Z,27.52
2022-10-17T10:29:24.956Z,27.52
2022-10-17T10:30:21.937Z,27.43
2022-10-17T10:31:21.933Z,27.29
2022-10-17T10:32:21.977Z,27.18
2022-10-17T10:33:21.971Z,27.2
2022-10-17T10:34:21.958Z,27.13
2022-10-17T10:35:21.974Z,27.1
2022-10-17T10:36:21.963Z,27.11
2022-10-17T10:37:22.007Z,27.2
2022-10-17T10:38:22.025Z,27.1
2022-10-17T10:39:21.986Z,27.18
2022-10-17T10:40:25.137Z,27.29
2022-10-17T10:41:21.965Z,27.41
2022-10-17T10:42:21.979Z,27.38
2022-10-17T10:43:21.955Z,27.22
2022-10-17T10:44:22.102Z,27.47
2022-10-17T10:45:51.513Z,27.66
2022-10-17T10:46:21.964Z,27.72
2022-10-17T10:47:21.993Z,27.75
2022-10-17T10:48:21.969Z,27.97
2022-10-17T10:49:21.991Z,28
2022-10-17T10:50:22.036Z,28.01
2022-10-17T10:51:24.758Z,28.06
2022-10-17T10:52:21.998Z,28.04
2022-10-17T10:53:22.006Z,28.1
2022-10-17T10:54:21.999Z,28.18
2022-10-17T10:55:22.225Z,28.06
2022-10-17T10:56:24.753Z,28.12
2022-10-17T10:57:22.015Z,27.86
2022-10-17T10:58:21.995Z,27.81
2022-10-17T10:59:21.989Z,27.91
2022-10-17T11:00:22.075Z,27.86
2022-10-17T11:01:22.189Z,27.95
2022-10-17T11:02:25.037Z,27.94
2022-10-17T11:03:21.997Z,27.9
2022-10-17T11:04:22.004Z,27.6
2022-10-17T11:05:22.038Z,27.68
2022-10-17T11:06:22.030Z,27.67
2022-10-17T11:07:22.102Z,27.6
2022-10-17T11:08:22.007Z,27.63
2022-10-17T11:09:22.066Z,27.6
2022-10-17T11:10:22.031Z,27.44
2022-10-17T11:11:22.050Z,27.38
2022-10-17T11:12:22.040Z,27.25
2022-10-17T11:13:25.133Z,27.22
2022-10-17T11:14:26.561Z,27.18
2022-10-17T11:15:22.017Z,27.29
2022-10-17T11:16:22.073Z,27.23
2022-10-17T11:17:22.020Z,27.29
2022-10-17T11:18:22.098Z,27.48
2022-10-17T11:19:22.028Z,27.43
2022-10-17T11:20:22.031Z,27.38
2022-10-17T11:21:22.061Z,27.53
2022-10-17T11:22:22.976Z,27.33
2022-10-17T11:23:22.052Z,27.15
2022-10-17T11:24:22.031Z,27.23
2022-10-17T11:25:22.072Z,27.15
2022-10-17T11:26:22.034Z,27.18
2022-10-17T11:27:22.130Z,27.18
2022-10-17T11:28:22.139Z,27.22
2022-10-17T11:29:22.048Z,27.22
2022-10-17T11:30:22.093Z,27.16
2022-10-17T11:31:22.055Z,27.29
2022-10-17T11:32:22.079Z,27.23
2022-10-17T11:33:22.097Z,27.25
2022-10-17T11:34:22.098Z,27.18
2022-10-17T11:35:22.062Z,27.18
2022-10-17T11:36:22.081Z,27.25
2022-10-17T11:37:22.271Z,27.13
2022-10-17T11:38:22.121Z,26.97
2022-10-17T11:39:22.087Z,26.85
2022-10-17T11:40:30.125Z,26.55
2022-10-17T11:41:22.081Z,26.64
2022-10-17T11:42:22.079Z,26.79
2022-10-17T11:43:22.439Z,26.73
2022-10-17T11:44:24.915Z,26.76
2022-10-17T11:45:25.175Z,26.74
2022-10-17T11:46:22.079Z,26.6
2022-10-17T11:47:22.165Z,26.6
2022-10-17T11:48:22.136Z,26.66
2022-10-17T11:49:25.256Z,26.78
2022-10-17T11:52:10.341Z,26.51
2022-10-17T11:53:10.319Z,26.53
2022-10-17T11:54:10.336Z,26.63
2022-10-17T11:55:10.296Z,26.78
2022-10-17T11:56:10.363Z,26.73
2022-10-17T11:57:16.127Z,26.88
2022-10-17T11:58:13.356Z,27.01
2022-10-17T11:59:10.358Z,26.82
2022-10-17T12:00:10.291Z,26.91
2022-10-17T12:01:10.317Z,26.78
2022-10-17T12:02:10.291Z,26.73
2022-10-17T12:03:10.301Z,26.83
2022-10-17T12:04:10.479Z,26.89
2022-10-17T12:05:10.370Z,26.89
2022-10-17T12:06:13.199Z,26.82
2022-10-17T12:07:10.315Z,26.91
2022-10-17T12:08:10.325Z,27
2022-10-17T12:09:10.354Z,27.04
2022-10-17T12:10:10.326Z,27.11
2022-10-17T12:11:10.321Z,27.19
2022-10-17T12:12:10.468Z,27.11
2022-10-17T12:13:10.348Z,27.19
2022-10-17T12:14:10.898Z,27.33
2022-10-17T12:15:10.367Z,27.35
2022-10-17T12:16:13.554Z,27.47
2022-10-17T12:17:15.838Z,27.5
2022-10-17T12:18:10.329Z,27.61
2022-10-17T12:19:10.346Z,27.53
2022-10-17T12:20:10.348Z,27.53
2022-10-17T12:21:10.393Z,27.47
2022-10-17T12:22:13.197Z,27.34
2022-10-17T12:23:10.505Z,27.48
2022-10-17T12:24:10.370Z,27.53
2022-10-17T12:25:10.413Z,27.66
2022-10-17T12:26:10.347Z,27.66
2022-10-17T12:27:13.374Z,27.67
2022-10-17T12:28:10.352Z,27.72
2022-10-17T12:29:10.527Z,27.68
2022-10-17T12:30:10.359Z,27.82
2022-10-17T12:31:10.383Z,27.94
2022-10-17T12:32:10.352Z,27.85
2022-10-17T12:33:13.203Z,27.79
2022-10-17T12:34:10.380Z,27.73
2022-10-17T12:35:10.378Z,27.68
2022-10-17T12:36:10.359Z,27.5
2022-10-17T12:37:10.380Z,27.5
2022-10-17T12:38:10.610Z,27.47
2022-10-17T12:39:10.411Z,27.5
2022-10-17T12:40:10.495Z,27.41
2022-10-17T12:41:10.491Z,27.43
2022-10-17T12:42:10.374Z,27.33
2022-10-17T12:43:10.441Z,27.33
2022-10-17T12:44:14.391Z,27.48
2022-10-17T12:45:10.383Z,27.48
2022-10-17T12:46:10.372Z,27.48
2022-10-17T12:47:10.738Z,27.6
2022-10-17T12:48:10.623Z,27.64
2022-10-17T12:49:10.432Z,27.66
2022-10-17T12:50:10.387Z,27.75
2022-10-17T12:51:40.583Z,27.61
2022-10-17T12:52:10.406Z,27.64
2022-10-17T12:53:10.907Z,27.6
2022-10-17T12:54:10.413Z,27.47
2022-10-17T12:55:18.007Z,27.58
2022-10-17T12:56:10.409Z,27.6
2022-10-17T12:57:10.427Z,27.66
2022-10-17T12:58:10.524Z,27.82
2022-10-17T12:59:10.465Z,27.91
2022-10-17T13:00:10.445Z,27.78